Time;durP1;ratioP1;P1;durP2;ratioP2;P2;SDS_P1;SDS_P2;PMS_P1;PMS_P2;Temp;Humidity;BMP_temperature;BMP_pressure;BME280_temperature;BME280_humidity;BME280_pressure;Samples;Min_cycle;Max_cycle;Signal;HPM_P1;HPM_P2
2023/12/24 00:01:13;;;;;;;1.60;0.77;;;9.10;99.90;;;;;;4982976;28;20268;-74
2023/12/24 00:03:39;;;;;;;0.80;0.80;;;9.10;99.90;;;;;;4990203;28;21006;-74
2023/12/24 00:06:06;;;;;;;1.13;1.03;;;9.10;99.90;;;;;;5000971;28;20245;-75
2023/12/24 00:08:32;;;;;;;0.97;0.97;;;9.10;99.90;;;;;;5000872;28;20560;-74
2023/12/24 00:10:58;;;;;;;2.00;1.20;;;9.10;99.90;;;;;;4978881;28;20511;-75
2023/12/24 00:13:26;;;;;;;1.00;0.90;;;9.10;99.90;;;;;;4992905;28;21003;-75
2023/12/24 00:15:52;;;;;;;0.90;0.70;;;9.20;99.90;;;;;;4992099;28;20470;-75
2023/12/24 00:18:19;;;;;;;1.40;1.10;;;9.20;99.90;;;;;;4996609;28;20468;-75
2023/12/24 00:20:45;;;;;;;0.83;0.83;;;9.20;99.90;;;;;;4989406;28;20222;-74
2023/12/24 00:23:11;;;;;;;1.00;0.90;;;9.20;99.90;;;;;;4995245;28;20516;-75
2023/12/24 00:25:38;;;;;;;1.33;1.23;;;9.20;99.90;;;;;;4999043;28;20846;-77
2023/12/24 00:28:05;;;;;;;1.17;1.07;;;9.20;99.90;;;;;;4993437;28;20470;-75
2023/12/24 00:30:31;;;;;;;0.80;0.80;;;9.20;99.90;;;;;;4979786;28;20489;-76
2023/12/24 00:32:58;;;;;;;0.70;0.57;;;9.20;99.90;;;;;;4974181;28;20471;-75
2023/12/24 00:35:25;;;;;;;0.80;0.70;;;9.20;99.90;;;;;;4994176;28;20469;-75
2023/12/24 00:37:51;;;;;;;1.23;1.13;;;9.20;99.90;;;;;;4992005;28;20571;-75
2023/12/24 00:40:18;;;;;;;0.93;0.93;;;9.20;99.90;;;;;;4996637;28;20553;-75
2023/12/24 00:42:45;;;;;;;0.70;0.70;;;9.30;99.90;;;;;;4989029;28;20215;-75
2023/12/24 00:45:11;;;;;;;2.53;0.77;;;9.20;99.90;;;;;;4991002;28;20473;-75
2023/12/24 00:47:38;;;;;;;0.97;0.67;;;9.30;99.90;;;;;;4991986;28;20469;-75
2023/12/24 00:50:06;;;;;;;1.90;1.00;;;9.30;99.90;;;;;;4981955;28;20847;-74
2023/12/24 00:52:36;;;;;;;0.93;0.80;;;9.30;99.90;;;;;;4997635;28;20468;-75
2023/12/24 00:55:03;;;;;;;1.73;0.80;;;9.30;99.90;;;;;;5003471;28;20476;-75
2023/12/24 00:57:28;;;;;;;0.83;0.80;;;9.30;99.90;;;;;;4984923;28;20461;-75
2023/12/24 00:59:54;;;;;;;1.73;0.70;;;9.30;99.90;;;;;;4987865;28;20458;-75
2023/12/24 01:02:20;;;;;;;0.60;0.47;;;9.30;99.90;;;;;;4998377;28;20696;-75
2023/12/24 01:04:45;;;;;;;0.70;0.70;;;9.30;99.90;;;;;;4997285;28;20218;-75
2023/12/24 01:07:12;;;;;;;1.10;0.97;;;9.30;99.90;;;;;;4996676;28;20305;-75
2023/12/24 01:09:38;;;;;;;0.70;0.60;;;9.30;99.90;;;;;;4986307;28;20598;-75
2023/12/24 01:12:04;;;;;;;0.70;0.70;;;9.30;99.90;;;;;;4991525;28;20465;-74
2023/12/24 01:14:30;;;;;;;0.97;0.63;;;9.30;99.90;;;;;;4978972;28;20479;-75
2023/12/24 01:16:56;;;;;;;0.50;0.50;;;9.30;99.90;;;;;;4994825;28;20470;-75
2023/12/24 01:19:22;;;;;;;0.83;0.80;;;9.30;99.90;;;;;;4995463;28;20214;-75
2023/12/24 01:21:48;;;;;;;0.87;0.70;;;9.30;99.90;;;;;;4973284;28;20224;-75
2023/12/24 01:24:14;;;;;;;0.57;0.57;;;9.30;99.90;;;;;;4991963;28;20457;-75
2023/12/24 01:26:40;;;;;;;1.27;0.70;;;9.30;99.90;;;;;;5000640;28;20544;-75
2023/12/24 01:29:06;;;;;;;1.33;0.83;;;9.40;99.90;;;;;;4980051;28;20548;-76
2023/12/24 01:31:32;;;;;;;1.03;0.80;;;9.40;99.90;;;;;;4996474;28;20218;-75
2023/12/24 01:33:59;;;;;;;1.93;0.60;;;9.40;99.90;;;;;;4973998;28;20225;-75
2023/12/24 01:36:25;;;;;;;0.80;0.73;;;9.40;99.90;;;;;;4983876;28;20559;-74
2023/12/24 01:38:50;;;;;;;1.17;0.73;;;9.40;99.90;;;;;;4992365;28;20224;-75
2023/12/24 01:41:16;;;;;;;0.60;0.60;;;9.40;99.90;;;;;;4996014;28;20892;-75
2023/12/24 01:43:43;;;;;;;0.70;0.70;;;9.30;99.90;;;;;;4985955;28;20214;-75
2023/12/24 01:46:11;;;;;;;1.07;0.90;;;9.40;99.90;;;;;;4994747;28;20251;-75
2023/12/24 01:48:38;;;;;;;0.70;0.70;;;9.40;99.90;;;;;;4972328;28;20564;-75
2023/12/24 01:51:04;;;;;;;0.63;0.63;;;9.40;99.90;;;;;;4975711;28;20464;-75
2023/12/24 01:53:31;;;;;;;1.10;0.57;;;9.40;99.90;;;;;;4993864;28;20490;-75
2023/12/24 01:56:06;;;;;;;1.57;0.90;;;9.40;99.90;;;;;;4990812;28;20296;-75
2023/12/24 01:58:32;;;;;;;0.50;0.50;;;9.40;99.90;;;;;;4989197;28;20512;-75
2023/12/24 02:00:58;;;;;;;0.67;0.67;;;9.40;99.90;;;;;;4989167;28;20504;-75
2023/12/24 02:03:24;;;;;;;2.13;1.50;;;9.30;99.90;;;;;;4992944;28;20683;-76
2023/12/24 02:05:50;;;;;;;0.70;0.70;;;9.30;99.90;;;;;;4972230;28;20776;-75
2023/12/24 02:08:21;;;;;;;0.80;0.60;;;9.40;99.90;;;;;;4991605;28;20230;-75
2023/12/24 02:10:48;;;;;;;0.93;0.90;;;9.40;99.90;;;;;;4986544;28;20482;-75
2023/12/24 02:13:14;;;;;;;1.83;0.70;;;9.40;99.90;;;;;;4989776;28;20473;-75
2023/12/24 02:15:40;;;;;;;0.60;0.60;;;9.40;99.90;;;;;;4995259;28;20476;-76
2023/12/24 02:18:09;;;;;;;0.70;0.70;;;9.40;99.90;;;;;;4993718;28;20461;-75
2023/12/24 02:20:35;;;;;;;0.50;0.50;;;9.40;99.90;;;;;;4997076;28;20468;-75
2023/12/24 02:23:00;;;;;;;0.93;0.90;;;9.40;99.90;;;;;;4986982;28;20483;-75
2023/12/24 02:25:26;;;;;;;1.53;1.03;;;9.40;99.90;;;;;;4981823;28;20309;-75
2023/12/24 02:28:06;;;;;;;1.40;1.00;;;9.40;99.90;;;;;;4976037;28;20641;-75
2023/12/24 02:30:41;;;;;;;1.53;1.07;;;9.40;99.90;;;;;;4978587;28;20457;-75
2023/12/24 02:33:09;;;;;;;0.93;0.93;;;9.40;99.90;;;;;;4974503;28;20519;-74
2023/12/24 02:35:37;;;;;;;1.13;0.97;;;9.40;99.90;;;;;;4986545;28;20513;-75
2023/12/24 02:38:03;;;;;;;1.10;1.00;;;9.40;99.90;;;;;;4990470;28;20480;-75
2023/12/24 02:40:29;;;;;;;1.00;0.90;;;9.40;99.90;;;;;;4980679;28;20469;-75
2023/12/24 02:42:54;;;;;;;0.93;0.93;;;9.30;99.90;;;;;;4989527;28;20480;-75
2023/12/24 02:45:20;;;;;;;0.90;0.90;;;9.40;99.90;;;;;;4993346;28;20704;-75
2023/12/24 02:47:46;;;;;;;4.50;1.17;;;9.30;99.90;;;;;;4990404;28;20272;-75
2023/12/24 02:50:11;;;;;;;0.80;0.80;;;9.40;99.90;;;;;;4976505;28;20222;-75
2023/12/24 02:52:37;;;;;;;1.00;1.00;;;9.30;99.90;;;;;;4979940;28;20209;-76
2023/12/24 02:55:03;;;;;;;1.00;0.90;;;9.30;99.90;;;;;;4992066;28;20218;-75
2023/12/24 02:57:29;;;;;;;0.77;0.77;;;9.30;99.90;;;;;;4974998;28;20457;-75
2023/12/24 02:59:55;;;;;;;1.50;1.20;;;9.30;99.90;;;;;;4990767;28;20457;-75
2023/12/24 03:02:21;;;;;;;1.37;1.27;;;9.30;99.90;;;;;;4991549;28;20209;-75
2023/12/24 03:04:46;;;;;;;2.20;1.40;;;9.30;99.90;;;;;;4985563;28;20225;-75
2023/12/24 03:07:12;;;;;;;3.07;1.63;;;9.30;99.90;;;;;;4981854;28;20217;-75
2023/12/24 03:09:38;;;;;;;1.37;0.90;;;9.30;99.90;;;;;;4997353;28;20221;-76
2023/12/24 03:12:05;;;;;;;0.80;0.80;;;9.30;99.90;;;;;;4990139;28;20455;-75
2023/12/24 03:14:30;;;;;;;0.70;0.60;;;9.30;99.90;;;;;;5009385;28;20542;-75
2023/12/24 03:16:56;;;;;;;0.70;0.70;;;9.30;99.90;;;;;;4993166;28;20453;-75
2023/12/24 03:19:22;;;;;;;0.87;0.70;;;9.30;99.90;;;;;;4998895;28;20354;-75
2023/12/24 03:21:47;;;;;;;0.67;0.67;;;9.30;99.90;;;;;;4985037;28;20242;-75
2023/12/24 03:24:15;;;;;;;1.17;0.70;;;9.30;99.90;;;;;;4984089;28;20210;-76
2023/12/24 03:26:41;;;;;;;0.67;0.63;;;9.30;99.90;;;;;;4994091;28;20521;-75
2023/12/24 03:29:12;;;;;;;0.50;0.50;;;9.30;99.90;;;;;;4998844;28;20707;-75
2023/12/24 03:31:37;;;;;;;0.80;0.80;;;9.30;99.90;;;;;;5010341;28;20522;-75
2023/12/24 03:34:03;;;;;;;0.67;0.67;;;9.30;99.90;;;;;;4994107;28;20449;-75
2023/12/24 03:36:29;;;;;;;0.53;0.53;;;9.30;99.90;;;;;;5015415;28;20229;-75
2023/12/24 03:38:54;;;;;;;0.90;0.90;;;9.30;99.90;;;;;;5009985;28;20225;-76
2023/12/24 03:41:20;;;;;;;1.90;0.97;;;9.30;99.90;;;;;;5017293;28;20224;-76
2023/12/24 03:43:46;;;;;;;1.47;0.80;;;9.30;99.90;;;;;;4987715;28;20616;-75
2023/12/24 03:46:12;;;;;;;0.80;0.80;;;9.30;99.90;;;;;;4987785;28;20209;-74
2023/12/24 03:48:37;;;;;;;1.50;1.03;;;9.30;99.90;;;;;;5015749;28;20230;-75
2023/12/24 03:51:03;;;;;;;0.67;0.67;;;9.30;99.90;;;;;;4991652;28;20226;-74
2023/12/24 03:53:29;;;;;;;1.00;0.70;;;9.30;99.90;;;;;;4987514;28;20225;-75
2023/12/24 03:55:55;;;;;;;1.47;1.10;;;9.30;99.90;;;;;;4999220;28;20283;-75
2023/12/24 03:58:21;;;;;;;0.80;0.70;;;9.30;99.90;;;;;;4995626;28;20304;-75
2023/12/24 04:00:47;;;;;;;1.67;0.80;;;9.30;99.90;;;;;;4997070;28;20552;-75
2023/12/24 04:03:12;;;;;;;1.63;0.90;;;9.30;99.90;;;;;;4988431;28;20234;-75
2023/12/24 04:05:38;;;;;;;1.83;0.90;;;9.30;99.90;;;;;;4999645;28;20229;-75
2023/12/24 04:08:04;;;;;;;0.97;0.80;;;9.30;99.90;;;;;;4978587;28;20241;-75
2023/12/24 04:10:31;;;;;;;1.00;0.90;;;9.30;99.90;;;;;;4991872;28;20214;-75
2023/12/24 04:13:02;;;;;;;0.83;0.80;;;9.30;99.90;;;;;;4992302;28;20222;-75
2023/12/24 04:15:28;;;;;;;0.70;0.50;;;9.30;99.90;;;;;;4977603;28;20505;-75
2023/12/24 04:17:53;;;;;;;0.50;0.50;;;9.30;99.90;;;;;;4986524;28;21002;-75
2023/12/24 04:20:20;;;;;;;1.00;0.90;;;9.30;99.90;;;;;;4997775;28;20214;-75
2023/12/24 04:22:46;;;;;;;0.70;0.60;;;9.30;99.90;;;;;;4971764;28;20493;-75
2023/12/24 04:25:12;;;;;;;0.73;0.70;;;9.30;99.90;;;;;;4978756;28;20492;-74
2023/12/24 04:27:38;;;;;;;5.33;0.80;;;9.30;99.90;;;;;;4983708;28;20227;-76
2023/12/24 04:30:04;;;;;;;0.53;0.53;;;9.30;99.90;;;;;;4986922;28;20307;-75
2023/12/24 04:32:30;;;;;;;0.60;0.60;;;9.30;99.90;;;;;;4991086;28;20222;-75
2023/12/24 04:34:56;;;;;;;0.63;0.57;;;9.30;99.90;;;;;;4987653;28;21076;-74
2023/12/24 04:37:21;;;;;;;0.93;0.80;;;9.20;99.90;;;;;;4985450;28;20233;-75
2023/12/24 04:39:47;;;;;;;0.60;0.60;;;9.30;99.90;;;;;;4986422;28;20214;-75
2023/12/24 04:42:13;;;;;;;1.00;0.47;;;9.20;99.90;;;;;;4983676;28;20689;-75
2023/12/24 04:44:40;;;;;;;0.70;0.70;;;9.20;99.90;;;;;;4998514;28;20277;-75
2023/12/24 04:47:08;;;;;;;0.80;0.60;;;9.20;99.90;;;;;;4983479;28;20508;-75
2023/12/24 04:49:34;;;;;;;0.50;0.50;;;9.20;99.90;;;;;;4998877;28;20249;-75
2023/12/24 04:52:00;;;;;;;0.60;0.43;;;9.20;99.90;;;;;;5003795;28;20460;-75
2023/12/24 04:54:27;;;;;;;0.60;0.50;;;9.20;99.90;;;;;;4983200;28;20539;-75
2023/12/24 04:56:53;;;;;;;0.80;0.80;;;9.20;99.90;;;;;;4987885;28;20240;-75
2023/12/24 04:59:18;;;;;;;0.70;0.60;;;9.20;99.90;;;;;;4995532;28;20478;-75
2023/12/24 05:01:44;;;;;;;0.60;0.53;;;9.20;99.90;;;;;;4975321;28;20223;-75
2023/12/24 05:04:10;;;;;;;1.27;0.60;;;9.20;99.90;;;;;;4980669;28;20218;-75
2023/12/24 05:06:35;;;;;;;0.70;0.70;;;9.10;99.90;;;;;;4991516;28;20214;-75
2023/12/24 05:09:01;;;;;;;0.90;0.90;;;9.10;99.90;;;;;;4992133;28;20313;-75
2023/12/24 05:11:27;;;;;;;0.70;0.70;;;9.10;99.90;;;;;;4981364;28;20297;-75
2023/12/24 05:13:53;;;;;;;0.80;0.60;;;9.10;99.90;;;;;;4986724;28;20532;-75
2023/12/24 05:16:18;;;;;;;0.83;0.83;;;9.10;99.90;;;;;;4997167;28;20290;-75
2023/12/24 05:18:45;;;;;;;1.00;1.00;;;9.00;99.90;;;;;;4981385;28;20222;-75
2023/12/24 05:21:11;;;;;;;1.30;1.20;;;9.10;99.90;;;;;;4999481;28;20246;-75
2023/12/24 05:23:37;;;;;;;0.87;0.87;;;9.00;99.90;;;;;;4984451;28;20547;-75
2023/12/24 05:26:02;;;;;;;1.30;1.20;;;9.10;99.90;;;;;;4989285;28;20246;-75
2023/12/24 05:28:28;;;;;;;1.17;1.17;;;9.00;99.90;;;;;;4999774;28;20688;-75
2023/12/24 05:30:54;;;;;;;1.37;1.27;;;9.00;99.90;;;;;;4999565;28;20214;-75
2023/12/24 05:33:20;;;;;;;0.90;0.90;;;9.00;99.90;;;;;;4998611;28;20739;-75
2023/12/24 05:35:45;;;;;;;1.40;1.30;;;9.00;99.90;;;;;;4985143;28;20305;-75
2023/12/24 05:38:11;;;;;;;0.83;0.83;;;9.00;99.90;;;;;;4983321;28;20230;-75
2023/12/24 05:40:36;;;;;;;0.93;0.93;;;9.00;99.90;;;;;;4991641;28;20263;-75
2023/12/24 05:43:03;;;;;;;0.83;0.83;;;9.00;99.90;;;;;;4979522;28;20261;-75
2023/12/24 05:45:28;;;;;;;1.00;0.80;;;9.00;99.90;;;;;;4995737;28;20207;-75
2023/12/24 05:47:54;;;;;;;0.87;0.87;;;8.90;99.90;;;;;;4992103;28;20959;-75
2023/12/24 05:50:22;;;;;;;0.80;0.80;;;9.00;99.90;;;;;;4985018;28;20222;-75
2023/12/24 05:52:47;;;;;;;0.80;0.80;;;9.00;99.90;;;;;;4999075;28;20218;-75
2023/12/24 05:55:13;;;;;;;1.13;0.90;;;8.90;99.90;;;;;;4995235;28;20496;-74
2023/12/24 05:57:39;;;;;;;1.20;1.10;;;8.90;99.90;;;;;;5002504;28;20216;-76
2023/12/24 06:00:05;;;;;;;1.03;0.90;;;8.90;99.90;;;;;;4989882;28;21030;-74
2023/12/24 06:02:38;;;;;;;0.80;0.80;;;8.90;99.90;;;;;;4989100;28;20277;-75
2023/12/24 06:05:04;;;;;;;1.27;0.90;;;8.90;99.90;;;;;;4999746;28;20979;-75
2023/12/24 06:07:29;;;;;;;0.80;0.80;;;8.90;99.90;;;;;;5008317;28;20683;-75
2023/12/24 06:09:55;;;;;;;1.00;1.00;;;8.90;99.90;;;;;;4996218;28;20268;-75
2023/12/24 06:12:21;;;;;;;1.20;1.13;;;8.90;99.90;;;;;;4989248;28;20552;-75
2023/12/24 06:14:46;;;;;;;1.37;1.27;;;8.90;99.90;;;;;;4998568;28;20217;-74
2023/12/24 06:17:12;;;;;;;1.17;1.07;;;9.00;99.90;;;;;;4991952;28;20699;-74
2023/12/24 06:19:38;;;;;;;1.50;1.40;;;9.00;99.90;;;;;;5004958;28;20297;-75
2023/12/24 06:22:05;;;;;;;1.30;1.20;;;8.90;99.90;;;;;;5000340;28;20221;-74
2023/12/24 06:24:31;;;;;;;1.13;1.13;;;8.90;99.90;;;;;;5006855;28;20218;-74
2023/12/24 06:26:57;;;;;;;2.00;1.80;;;8.90;99.90;;;;;;5007617;28;20514;-74
2023/12/24 06:29:22;;;;;;;1.00;1.00;;;8.90;99.90;;;;;;4998170;28;21049;-74
2023/12/24 06:31:48;;;;;;;4.40;1.63;;;9.00;99.90;;;;;;5020843;28;20209;-74
2023/12/24 06:34:14;;;;;;;1.43;1.33;;;8.90;99.90;;;;;;5009090;28;20209;-74
2023/12/24 06:36:40;;;;;;;1.33;1.33;;;8.90;99.90;;;;;;5010254;28;20225;-74
2023/12/24 06:39:05;;;;;;;1.53;1.43;;;8.90;99.90;;;;;;5004474;28;21106;-74
2023/12/24 06:41:31;;;;;;;2.17;2.00;;;8.90;99.90;;;;;;4991997;28;20257;-75
2023/12/24 06:43:57;;;;;;;1.70;1.60;;;8.90;99.90;;;;;;4983704;28;20225;-74
2023/12/24 06:46:24;;;;;;;2.50;1.50;;;8.90;99.90;;;;;;4998754;28;20222;-74
2023/12/24 06:48:53;;;;;;;3.40;1.63;;;8.90;99.90;;;;;;5004079;28;20470;-74
2023/12/24 06:51:19;;;;;;;1.53;1.43;;;8.90;99.90;;;;;;4993941;28;20484;-76
2023/12/24 06:53:44;;;;;;;1.63;1.50;;;8.90;99.90;;;;;;4990587;28;20500;-75
2023/12/24 06:56:10;;;;;;;1.10;1.10;;;8.90;99.90;;;;;;4989410;28;20300;-75
2023/12/24 06:58:36;;;;;;;1.40;1.30;;;8.90;99.90;;;;;;5006984;28;20298;-75
2023/12/24 07:01:02;;;;;;;1.30;1.20;;;8.90;99.90;;;;;;5002871;28;20300;-74
2023/12/24 07:03:28;;;;;;;2.40;1.47;;;8.90;99.90;;;;;;5004843;28;20214;-75
2023/12/24 07:05:54;;;;;;;1.30;1.30;;;9.00;99.90;;;;;;4979841;28;21041;-74
2023/12/24 07:08:22;;;;;;;1.30;1.30;;;8.90;99.90;;;;;;5004144;28;20284;-75
2023/12/24 07:10:47;;;;;;;1.30;1.23;;;9.00;99.90;;;;;;5002262;28;20210;-74
2023/12/24 07:13:13;;;;;;;1.20;1.10;;;9.00;99.90;;;;;;5003036;28;20586;-75
2023/12/24 07:15:40;;;;;;;1.40;1.30;;;9.00;99.90;;;;;;4992379;28;20287;-75
2023/12/24 07:18:06;;;;;;;4.27;1.47;;;9.00;99.90;;;;;;4997578;28;20245;-75
2023/12/24 07:20:31;;;;;;;1.50;1.40;;;9.00;99.90;;;;;;5007450;28;20488;-75
2023/12/24 07:22:57;;;;;;;1.30;1.20;;;9.00;99.90;;;;;;5010909;28;20925;-75
2023/12/24 07:25:23;;;;;;;1.33;1.23;;;9.00;99.90;;;;;;5010950;28;20218;-74
2023/12/24 07:27:49;;;;;;;1.97;1.40;;;9.00;99.90;;;;;;5003641;28;20271;-74
2023/12/24 07:30:15;;;;;;;1.30;1.20;;;9.00;99.90;;;;;;5002845;28;20233;-74
2023/12/24 07:32:44;;;;;;;1.23;1.23;;;8.90;99.90;;;;;;5001190;28;20293;-75
2023/12/24 07:35:10;;;;;;;1.07;1.07;;;8.90;99.90;;;;;;4995577;28;20476;-76
2023/12/24 07:37:36;;;;;;;0.90;0.90;;;8.90;99.90;;;;;;5004656;28;20464;-75
2023/12/24 07:40:02;;;;;;;1.33;1.23;;;8.90;99.90;;;;;;5006015;28;20480;-75
2023/12/24 07:42:28;;;;;;;1.37;1.27;;;8.90;99.90;;;;;;5010868;28;20213;-75
2023/12/24 07:44:54;;;;;;;1.23;1.10;;;8.90;99.90;;;;;;5008058;28;20464;-75
2023/12/24 07:47:19;;;;;;;1.13;1.03;;;8.90;99.90;;;;;;5006367;28;20231;-75
2023/12/24 07:49:45;;;;;;;1.30;1.20;;;9.00;99.90;;;;;;5029881;28;20228;-75
2023/12/24 07:52:11;;;;;;;1.27;1.17;;;8.90;99.90;;;;;;5011944;28;20221;-74
2023/12/24 07:54:36;;;;;;;1.50;1.20;;;9.00;99.90;;;;;;4991009;28;20207;-75
2023/12/24 07:57:02;;;;;;;1.17;1.07;;;9.00;99.90;;;;;;5009736;28;20216;-74
2023/12/24 07:59:28;;;;;;;1.53;0.83;;;9.00;99.90;;;;;;5001124;28;20655;-75
2023/12/24 08:01:53;;;;;;;1.10;1.00;;;9.00;99.90;;;;;;4990111;28;20265;-75
2023/12/24 08:04:19;;;;;;;1.00;0.87;;;9.00;99.90;;;;;;5007777;28;20292;-75
2023/12/24 08:06:45;;;;;;;1.47;0.97;;;9.00;99.90;;;;;;5008539;28;20576;-75
2023/12/24 08:09:11;;;;;;;0.80;0.80;;;9.00;99.90;;;;;;5004820;28;20232;-74
2023/12/24 08:11:37;;;;;;;0.83;0.83;;;9.00;99.90;;;;;;5005420;28;20231;-75
2023/12/24 08:14:04;;;;;;;0.80;0.80;;;9.00;99.90;;;;;;5002473;28;20455;-75
2023/12/24 08:16:33;;;;;;;0.77;0.70;;;9.00;99.90;;;;;;5010962;28;20464;-75
2023/12/24 08:18:59;;;;;;;3.20;0.97;;;9.10;99.90;;;;;;5007647;28;20487;-74
2023/12/24 08:21:24;;;;;;;0.60;0.60;;;9.10;99.90;;;;;;5006582;28;20488;-75
2023/12/24 08:23:50;;;;;;;0.80;0.80;;;9.10;99.90;;;;;;5012750;28;20480;-75
2023/12/24 08:26:18;;;;;;;1.27;1.17;;;9.10;99.90;;;;;;5003892;28;20594;-74
2023/12/24 08:28:44;;;;;;;0.80;0.80;;;9.10;99.90;;;;;;5007802;28;20245;-75
2023/12/24 08:31:10;;;;;;;0.83;0.83;;;9.10;99.90;;;;;;4990527;28;20837;-75
2023/12/24 08:33:37;;;;;;;0.77;0.77;;;9.10;99.90;;;;;;5009099;28;20469;-75
2023/12/24 08:36:04;;;;;;;0.80;0.80;;;9.10;99.90;;;;;;4993315;28;20505;-75
2023/12/24 08:38:29;;;;;;;0.90;0.90;;;9.10;99.90;;;;;;4996399;28;20500;-75
2023/12/24 08:40:55;;;;;;;1.33;1.10;;;9.10;99.90;;;;;;5006464;28;20484;-76
2023/12/24 08:43:21;;;;;;;1.03;1.00;;;9.10;99.90;;;;;;5005430;28;20305;-74
2023/12/24 08:45:47;;;;;;;1.17;0.77;;;9.10;99.90;;;;;;5009194;28;20721;-74
2023/12/24 08:48:12;;;;;;;1.20;1.00;;;9.10;99.90;;;;;;4999313;28;20728;-75
2023/12/24 08:50:38;;;;;;;0.57;0.57;;;9.10;99.90;;;;;;4992620;28;20245;-74
2023/12/24 08:53:04;;;;;;;0.60;0.60;;;9.20;99.90;;;;;;5005755;28;20213;-75
2023/12/24 08:55:30;;;;;;;1.23;0.70;;;9.20;99.90;;;;;;5003788;28;20230;-74
2023/12/24 08:57:58;;;;;;;0.50;0.50;;;9.20;99.90;;;;;;5009380;28;20555;-75
2023/12/24 09:00:24;;;;;;;0.60;0.60;;;9.20;99.90;;;;;;5006188;28;20276;-75
2023/12/24 09:02:50;;;;;;;1.47;1.37;;;9.20;99.90;;;;;;5011677;28;20464;-74
2023/12/24 09:05:18;;;;;;;1.10;1.00;;;9.20;99.90;;;;;;5003697;28;20231;-74
2023/12/24 09:07:45;;;;;;;1.07;0.97;;;9.20;99.90;;;;;;4995215;28;20229;-75
2023/12/24 09:10:11;;;;;;;0.90;0.90;;;9.20;99.90;;;;;;5008174;28;20474;-75
2023/12/24 09:12:36;;;;;;;0.97;0.97;;;9.20;99.90;;;;;;5010315;28;20460;-75
2023/12/24 09:15:03;;;;;;;1.23;1.13;;;9.20;99.90;;;;;;5011632;28;20467;-76
2023/12/24 09:17:29;;;;;;;1.73;1.63;;;9.20;99.90;;;;;;5016511;28;20279;-75
2023/12/24 09:19:54;;;;;;;2.40;2.20;;;9.30;99.90;;;;;;5014931;28;20464;-75
2023/12/24 09:22:20;;;;;;;3.70;3.00;;;9.30;99.90;;;;;;5011754;28;20224;-74
2023/12/24 09:24:46;;;;;;;3.27;3.07;;;9.30;99.90;;;;;;5010744;28;20644;-75
2023/12/24 09:27:12;;;;;;;1.93;1.83;;;9.30;99.90;;;;;;5012616;28;20457;-74
2023/12/24 09:29:38;;;;;;;1.60;1.50;;;9.30;99.90;;;;;;4993233;28;20221;-75
2023/12/24 09:32:04;;;;;;;2.20;2.00;;;9.30;99.90;;;;;;5001018;28;20222;-75
2023/12/24 09:34:29;;;;;;;1.50;1.40;;;9.30;99.90;;;;;;5005509;28;20301;-74
2023/12/24 09:36:55;;;;;;;1.47;1.40;;;9.30;99.90;;;;;;4994948;28;20218;-75
2023/12/24 09:39:21;;;;;;;1.40;1.30;;;9.30;99.90;;;;;;4990802;28;20217;-75
2023/12/24 09:41:47;;;;;;;1.20;1.00;;;9.30;99.90;;;;;;5005810;28;20442;-75
2023/12/24 09:44:13;;;;;;;1.30;1.20;;;9.30;99.90;;;;;;4985980;28;20222;-74
2023/12/24 09:46:38;;;;;;;3.00;1.80;;;9.30;99.90;;;;;;5005400;28;20298;-74
2023/12/24 09:49:04;;;;;;;3.03;2.70;;;9.30;99.90;;;;;;4978874;28;20218;-74
2023/12/24 09:51:35;;;;;;;2.03;1.93;;;9.40;99.90;;;;;;5001080;28;20214;-76
2023/12/24 09:54:01;;;;;;;3.47;3.17;;;9.40;99.90;;;;;;4993191;28;20461;-74
2023/12/24 09:56:27;;;;;;;2.10;2.00;;;9.30;99.90;;;;;;4980318;28;20567;-74
2023/12/24 09:58:53;;;;;;;7.53;6.83;;;9.40;99.90;;;;;;4993029;28;20481;-76
2023/12/24 10:01:18;;;;;;;5.27;4.73;;;9.40;99.90;;;;;;4993571;28;20268;-75
2023/12/24 10:03:44;;;;;;;3.43;3.00;;;9.40;99.90;;;;;;4978769;28;20214;-74
2023/12/24 10:06:10;;;;;;;2.20;2.10;;;9.40;99.90;;;;;;4975311;28;20227;-74
2023/12/24 10:08:36;;;;;;;3.20;2.90;;;9.40;99.90;;;;;;4997036;28;20270;-75
2023/12/24 10:11:16;;;;;;;1.93;1.83;;;9.50;99.90;;;;;;4976519;28;20224;-74
2023/12/24 10:13:46;;;;;;;1.13;1.03;;;9.50;99.90;;;;;;4993783;28;20480;-74
2023/12/24 10:16:12;;;;;;;1.07;0.90;;;9.50;99.90;;;;;;4995705;28;20475;-75
2023/12/24 10:18:49;;;;;;;1.07;1.07;;;9.50;99.90;;;;;;4993393;28;20452;-74
2023/12/24 10:21:16;;;;;;;1.00;1.00;;;9.50;99.90;;;;;;4996292;28;20213;-75
2023/12/24 10:23:42;;;;;;;1.13;1.03;;;9.60;99.90;;;;;;4993057;28;20467;-75
2023/12/24 10:26:11;;;;;;;0.80;0.80;;;9.60;99.90;;;;;;4972151;28;20449;-74
2023/12/24 10:28:49;;;;;;;0.77;0.70;;;9.60;99.90;;;;;;4992069;28;20222;-74
2023/12/24 10:31:15;;;;;;;4.13;3.63;;;9.60;99.90;;;;;;4997283;28;20460;-74
2023/12/24 10:33:41;;;;;;;1.60;1.33;;;9.60;99.90;;;;;;4984122;28;21026;-74
2023/12/24 10:36:08;;;;;;;0.60;0.60;;;9.60;99.90;;;;;;4973183;28;20349;-74
2023/12/24 10:38:35;;;;;;;1.17;1.10;;;9.60;99.90;;;;;;4989791;28;20482;-75
2023/12/24 10:41:02;;;;;;;2.87;2.43;;;9.70;99.90;;;;;;4994179;28;20464;-75
2023/12/24 10:43:28;;;;;;;6.97;5.33;;;9.70;99.90;;;;;;4991911;28;20477;-75
2023/12/24 10:45:55;;;;;;;5.27;3.93;;;9.70;99.90;;;;;;4993928;28;20495;-74
2023/12/24 10:48:21;;;;;;;2.00;1.80;;;9.80;99.90;;;;;;4991061;28;20466;-75
2023/12/24 10:50:47;;;;;;;4.83;1.93;;;9.80;99.90;;;;;;4990400;28;20481;-75
2023/12/24 10:53:13;;;;;;;4.10;3.80;;;9.80;99.90;;;;;;4992748;28;20846;-74
2023/12/24 10:55:44;;;;;;;5.57;4.87;;;9.80;99.90;;;;;;4980171;28;20488;-74
2023/12/24 10:58:28;;;;;;;7.93;6.40;;;9.80;99.90;;;;;;4982325;28;20995;-74
2023/12/24 11:01:07;;;;;;;15.87;10.37;;;9.80;99.90;;;;;;4972028;28;20472;-75
2023/12/24 11:03:43;;;;;;;31.47;15.23;;;9.90;99.90;;;;;;4994128;28;20505;-75
2023/12/24 11:06:09;;;;;;;15.63;8.80;;;9.90;99.90;;;;;;4993976;28;20457;-74
2023/12/24 11:08:35;;;;;;;8.30;5.00;;;9.90;99.90;;;;;;4993208;28;20464;-75
2023/12/24 11:11:07;;;;;;;16.63;7.43;;;9.90;99.90;;;;;;4987482;28;20983;-75
2023/12/24 11:13:32;;;;;;;14.70;8.03;;;9.90;99.90;;;;;;4993102;28;20614;-75
2023/12/24 11:15:59;;;;;;;17.00;10.37;;;9.90;99.90;;;;;;4991047;28;20479;-75
2023/12/24 11:18:46;;;;;;;7.23;4.83;;;10.00;99.90;;;;;;4995619;28;20354;-75
2023/12/24 11:21:16;;;;;;;2.17;1.97;;;10.00;99.90;;;;;;4985243;28;20464;-75
2023/12/24 11:24:08;;;;;;;2.10;1.80;;;10.00;99.90;;;;;;4992075;28;20480;-75
2023/12/24 11:26:34;;;;;;;3.53;3.23;;;10.00;99.90;;;;;;5000808;28;20838;-75
2023/12/24 11:29:01;;;;;;;2.57;2.47;;;10.00;99.90;;;;;;4995652;28;20481;-75
2023/12/24 11:31:27;;;;;;;0.93;0.93;;;10.00;99.90;;;;;;5007247;28;20214;-75
2023/12/24 11:33:54;;;;;;;1.10;1.00;;;10.00;99.90;;;;;;4991206;28;20476;-75
2023/12/24 11:36:22;;;;;;;1.00;1.00;;;10.00;99.90;;;;;;4992168;28;20502;-75
2023/12/24 11:38:56;;;;;;;1.10;0.90;;;10.00;99.90;;;;;;4989651;28;20890;-74
2023/12/24 11:41:23;;;;;;;0.80;0.80;;;10.00;99.90;;;;;;4995189;28;20978;-74
2023/12/24 11:43:53;;;;;;;0.70;0.50;;;10.00;99.90;;;;;;4970509;28;20573;-75
2023/12/24 11:46:19;;;;;;;0.50;0.50;;;10.00;99.90;;;;;;4999417;28;20469;-75
2023/12/24 11:48:45;;;;;;;0.57;0.53;;;10.10;99.90;;;;;;4994210;28;20470;-75
2023/12/24 11:51:11;;;;;;;1.60;0.70;;;10.10;99.90;;;;;;4978724;28;20469;-74
2023/12/24 11:53:38;;;;;;;0.43;0.43;;;10.10;99.90;;;;;;5000508;28;20274;-75
2023/12/24 11:56:10;;;;;;;1.00;0.60;;;10.10;99.90;;;;;;4991912;28;20484;-75
2023/12/24 11:58:48;;;;;;;0.37;0.30;;;10.10;99.90;;;;;;4999338;28;20469;-74
2023/12/24 12:01:20;;;;;;;0.40;0.30;;;10.10;99.90;;;;;;5008744;28;20459;-75
2023/12/24 12:03:46;;;;;;;1.00;0.40;;;10.10;99.90;;;;;;5005364;28;20483;-75
2023/12/24 12:06:11;;;;;;;0.40;0.30;;;10.20;99.90;;;;;;4979055;28;20470;-75
2023/12/24 12:08:37;;;;;;;0.80;0.40;;;10.20;99.90;;;;;;4983997;28;20232;-75
2023/12/24 12:11:03;;;;;;;0.70;0.40;;;10.20;99.90;;;;;;4978318;28;20218;-75
2023/12/24 12:13:28;;;;;;;0.40;0.30;;;10.20;99.90;;;;;;4996451;28;20296;-75
2023/12/24 12:15:54;;;;;;;0.97;0.30;;;10.20;99.90;;;;;;4997844;28;20731;-75
2023/12/24 12:18:20;;;;;;;0.40;0.30;;;10.20;99.90;;;;;;4997714;28;20242;-75
2023/12/24 12:20:47;;;;;;;0.43;0.43;;;10.20;99.90;;;;;;4982046;28;20503;-75
2023/12/24 12:23:16;;;;;;;0.50;0.50;;;10.20;99.90;;;;;;4995347;28;20241;-75
2023/12/24 12:25:43;;;;;;;0.47;0.33;;;10.20;99.90;;;;;;5000017;28;20472;-75
2023/12/24 12:28:09;;;;;;;0.70;0.33;;;10.20;99.90;;;;;;4994252;28;20478;-75
2023/12/24 12:30:34;;;;;;;0.40;0.30;;;10.20;99.90;;;;;;5007229;28;20477;-75
2023/12/24 12:33:01;;;;;;;0.40;0.30;;;10.20;99.90;;;;;;5002326;28;20221;-75
2023/12/24 12:35:26;;;;;;;0.60;0.40;;;10.20;99.90;;;;;;4999073;28;20743;-75
2023/12/24 12:37:52;;;;;;;1.10;0.70;;;10.20;99.90;;;;;;5000744;28;20499;-75
2023/12/24 12:40:18;;;;;;;0.70;0.40;;;10.20;99.90;;;;;;4980743;28;20248;-75
2023/12/24 12:42:44;;;;;;;0.70;0.53;;;10.20;99.90;;;;;;4997647;28;20293;-75
2023/12/24 12:45:10;;;;;;;4.43;2.70;;;10.20;99.90;;;;;;4993722;28;20213;-74
2023/12/24 12:47:36;;;;;;;13.37;6.33;;;10.20;99.90;;;;;;5000931;28;20477;-75
2023/12/24 12:50:02;;;;;;;4.00;3.57;;;10.20;99.90;;;;;;4984129;28;20558;-75
2023/12/24 12:52:28;;;;;;;1.20;1.10;;;10.30;99.90;;;;;;5003898;28;20214;-75